createdAt,value
2023-01-07T00:02:27.638Z,1.30
2023-01-07T00:05:25.081Z,1.60
2023-01-07T00:08:22.872Z,1.70
2023-01-07T00:11:20.536Z,1.30
2023-01-07T00:14:18.001Z,1.80
2023-01-07T00:17:15.400Z,1.70
2023-01-07T00:20:13.579Z,1.30
2023-01-07T00:23:11.458Z,1.40
2023-01-07T00:26:09.202Z,1.20
2023-01-07T00:29:06.648Z,1.50
2023-01-07T00:32:04.546Z,1.40
2023-01-07T00:35:01.969Z,1.50
2023-01-07T00:37:59.766Z,1.80
2023-01-07T00:40:57.221Z,1.90
2023-01-07T00:43:55.323Z,1.50
2023-01-07T00:46:52.807Z,2.00
2023-01-07T00:49:50.844Z,1.30
2023-01-07T00:52:48.299Z,1.30
2023-01-07T00:55:46.287Z,1.50
2023-01-07T00:58:43.753Z,1.40
2023-01-07T01:01:41.965Z,1.20
2023-01-07T01:04:39.482Z,1.40
2023-01-07T01:07:37.371Z,1.80
2023-01-07T01:10:34.812Z,1.40
2023-01-07T01:13:32.670Z,1.60
2023-01-07T01:16:30.177Z,1.70
2023-01-07T01:19:28.190Z,1.50
2023-01-07T01:22:25.631Z,1.70
2023-01-07T01:25:23.418Z,1.40
2023-01-07T01:28:21.191Z,1.80
2023-01-07T01:31:18.650Z,1.60
2023-01-07T01:34:16.923Z,1.40
2023-01-07T01:37:14.315Z,1.70
2023-01-07T01:40:12.022Z,1.40
2023-01-07T01:43:09.457Z,1.60
2023-01-07T01:46:07.182Z,1.60
2023-01-07T01:49:04.873Z,1.50
2023-01-07T01:52:02.289Z,1.60
2023-01-07T01:54:59.965Z,1.50
2023-01-07T01:57:57.384Z,1.50
2023-01-07T02:00:55.181Z,1.50
2023-01-07T02:03:52.669Z,1.40
2023-01-07T02:06:51.010Z,1.30
2023-01-07T02:09:48.717Z,1.30
2023-01-07T02:12:46.153Z,1.50
2023-01-07T02:15:43.950Z,1.40
2023-01-07T02:18:41.402Z,1.50
2023-01-07T02:21:39.092Z,1.40
2023-01-07T02:24:36.556Z,1.20
2023-01-07T02:27:34.291Z,1.50
2023-01-07T02:30:32.001Z,1.40
2023-01-07T02:33:29.419Z,1.20
2023-01-07T02:36:27.046Z,1.40
2023-01-07T02:39:24.480Z,1.50
2023-01-07T02:42:22.065Z,1.30
2023-01-07T02:45:19.498Z,1.50
2023-01-07T02:48:17.224Z,1.20
2023-01-07T02:51:14.941Z,1.50
2023-01-07T02:54:12.446Z,1.30
2023-01-07T02:57:10.154Z,1.20
2023-01-07T03:00:07.583Z,1.40
2023-01-07T03:03:05.379Z,1.40
2023-01-07T03:06:02.861Z,1.50
2023-01-07T03:09:00.578Z,1.40
2023-01-07T03:11:58.214Z,1.60
2023-01-07T03:14:55.673Z,1.40
2023-01-07T03:17:53.488Z,1.20
2023-01-07T03:20:50.911Z,1.60
2023-01-07T03:23:48.696Z,1.50
2023-01-07T03:26:46.134Z,1.40
2023-01-07T03:29:43.717Z,1.30
2023-01-07T03:32:41.419Z,1.40
2023-01-07T03:35:38.865Z,1.30
2023-01-07T03:38:36.482Z,1.60
2023-01-07T03:41:51.804Z,1.50
2023-01-07T03:44:49.561Z,1.30
2023-01-07T03:47:47.320Z,1.20
2023-01-07T03:50:44.745Z,1.30
2023-01-07T03:53:42.445Z,1.20
2023-01-07T03:56:39.858Z,1.30
2023-01-07T03:59:37.471Z,1.00
2023-01-07T04:02:34.909Z,1.20
2023-01-07T04:05:32.597Z,1.40
2023-01-07T04:08:30.367Z,1.30
2023-01-07T04:11:27.804Z,1.30
2023-01-07T04:14:25.586Z,1.40
2023-01-07T04:17:23.013Z,1.50
2023-01-07T04:20:20.814Z,1.60
2023-01-07T04:23:18.304Z,2.10
2023-01-07T04:26:16.084Z,1.70
2023-01-07T04:29:13.510Z,1.90
2023-01-07T04:32:11.202Z,1.90
2023-01-07T04:35:08.935Z,2.20
2023-01-07T04:38:06.381Z,1.60
2023-01-07T04:41:04.002Z,1.80
2023-01-07T04:44:01.418Z,1.90
2023-01-07T04:46:59.119Z,1.50
2023-01-07T04:49:56.533Z,1.90
2023-01-07T04:52:54.227Z,1.90
2023-01-07T04:55:51.826Z,2.20
2023-01-07T04:58:49.513Z,2.20
2023-01-07T05:01:47.041Z,2.40
2023-01-07T05:04:45.097Z,2.00
2023-01-07T05:07:42.730Z,2.20
2023-01-07T05:10:40.158Z,2.30
2023-01-07T05:13:37.839Z,2.30
2023-01-07T05:16:35.355Z,2.30
2023-01-07T05:19:33.125Z,2.10
2023-01-07T05:22:30.550Z,2.20
2023-01-07T05:25:28.250Z,1.90
2023-01-07T05:28:25.679Z,1.80
2023-01-07T05:31:23.445Z,1.70
2023-01-07T05:34:20.880Z,1.70
2023-01-07T05:37:18.698Z,1.60
2023-01-07T05:40:16.440Z,1.80
2023-01-07T05:43:13.864Z,1.60
2023-01-07T05:46:11.618Z,1.40
2023-01-07T05:49:09.078Z,1.80
2023-01-07T05:52:06.776Z,1.80
2023-01-07T05:55:04.234Z,1.50
2023-01-07T05:58:02.026Z,1.50
2023-01-07T06:00:59.487Z,2.00
2023-01-07T06:03:57.238Z,1.70
2023-01-07T06:06:54.990Z,1.70
2023-01-07T06:09:52.459Z,1.70
2023-01-07T06:12:51.683Z,2.20
2023-01-07T06:15:49.250Z,2.40
2023-01-07T06:18:47.100Z,2.00
2023-01-07T06:21:44.540Z,1.90
2023-01-07T06:24:42.252Z,3.40
2023-01-07T06:27:41.189Z,2.00
2023-01-07T06:30:38.672Z,1.50
2023-01-07T06:33:38.271Z,2.00
2023-01-07T06:36:35.701Z,1.70
2023-01-07T06:39:33.541Z,1.70
2023-01-07T06:42:30.984Z,1.70
2023-01-07T06:45:28.745Z,1.30
2023-01-07T06:48:26.192Z,1.70
2023-01-07T06:51:23.815Z,1.80
2023-01-07T06:54:21.556Z,1.90
2023-01-07T06:57:18.998Z,1.90
2023-01-07T07:00:16.656Z,1.90
2023-01-07T07:03:14.221Z,2.00
2023-01-07T07:06:12.077Z,2.40
2023-01-07T07:09:09.530Z,2.10
2023-01-07T07:12:07.193Z,1.90
2023-01-07T07:15:04.651Z,1.80
2023-01-07T07:18:02.288Z,1.80
2023-01-07T07:20:59.728Z,1.60
2023-01-07T07:23:57.489Z,1.50
2023-01-07T07:26:55.237Z,1.70
2023-01-07T07:29:52.663Z,1.80
2023-01-07T07:32:51.243Z,1.60
2023-01-07T07:35:48.744Z,1.90
2023-01-07T07:38:46.509Z,1.50
2023-01-07T07:41:43.979Z,2.60
2023-01-07T07:44:41.722Z,2.20
2023-01-07T07:47:39.156Z,2.50
2023-01-07T07:50:36.850Z,2.80
2023-01-07T07:53:34.626Z,2.60
2023-01-07T07:56:32.075Z,2.30
2023-01-07T07:59:29.879Z,2.40
2023-01-07T08:02:27.446Z,2.30
2023-01-07T08:05:25.267Z,2.30
2023-01-07T08:08:22.940Z,3.10
2023-01-07T08:11:20.662Z,2.90
2023-01-07T08:14:18.345Z,2.80
2023-01-07T08:17:15.813Z,2.50
2023-01-07T08:20:13.497Z,2.90
2023-01-07T08:23:11.061Z,2.70
2023-01-07T08:26:08.752Z,3.00
2023-01-07T08:29:06.175Z,1.90
2023-01-07T08:32:03.855Z,2.60
2023-01-07T08:35:04.424Z,2.40
2023-01-07T08:38:02.160Z,2.70
2023-01-07T08:40:59.910Z,2.80
2023-01-07T08:43:57.360Z,2.20
2023-01-07T08:46:55.204Z,1.90
2023-01-07T08:49:52.685Z,2.20
2023-01-07T08:52:50.877Z,1.70
2023-01-07T08:55:48.293Z,2.10
2023-01-07T08:58:45.872Z,4.00
2023-01-07T09:01:43.506Z,5.50
2023-01-07T09:04:41.376Z,3.60
2023-01-07T09:07:39.142Z,3.30
2023-01-07T09:10:36.687Z,3.40
2023-01-07T09:13:34.648Z,2.90
2023-01-07T09:16:32.181Z,2.40
2023-01-07T09:19:29.831Z,2.80
2023-01-07T09:22:27.253Z,3.10
2023-01-07T09:25:25.106Z,2.60
2023-01-07T09:28:29.631Z,2.80
2023-01-07T09:31:27.436Z,2.30
2023-01-07T09:34:26.184Z,2.50
2023-01-07T09:37:23.645Z,3.20
2023-01-07T09:40:21.332Z,3.50
2023-01-07T09:43:18.775Z,3.20
2023-01-07T09:46:16.528Z,2.90
2023-01-07T09:49:17.589Z,2.90
2023-01-07T09:52:15.322Z,3.60
2023-01-07T09:55:13.005Z,3.10
2023-01-07T09:58:10.420Z,2.80
2023-01-07T10:01:08.212Z,2.70
2023-01-07T10:04:05.785Z,3.10
2023-01-07T10:07:03.559Z,5.40
2023-01-07T10:10:01.018Z,3.10
2023-01-07T10:12:58.799Z,2.90
2023-01-07T10:15:56.265Z,3.40
2023-01-07T10:18:54.016Z,3.10
2023-01-07T10:21:51.792Z,3.30
2023-01-07T10:24:49.249Z,3.20
2023-01-07T10:27:47.004Z,2.90
2023-01-07T10:30:44.448Z,2.90
2023-01-07T10:33:42.226Z,3.20
2023-01-07T10:36:39.679Z,3.00
2023-01-07T10:39:37.433Z,3.10
2023-01-07T10:42:35.268Z,2.50
2023-01-07T10:45:32.736Z,2.90
2023-01-07T10:48:30.425Z,2.90
2023-01-07T10:51:27.854Z,2.50
2023-01-07T10:54:25.585Z,2.80
2023-01-07T10:57:23.012Z,2.40
2023-01-07T11:00:20.708Z,2.20
2023-01-07T11:03:18.145Z,2.20
2023-01-07T11:06:15.837Z,1.80
2023-01-07T11:09:13.475Z,2.00
2023-01-07T11:12:10.924Z,1.60
2023-01-07T11:15:08.736Z,1.50
2023-01-07T11:18:06.167Z,1.80
2023-01-07T11:21:03.959Z,2.60
2023-01-07T11:24:02.229Z,1.70
2023-01-07T11:26:59.652Z,1.70
2023-01-07T11:29:57.384Z,1.80
2023-01-07T11:32:54.810Z,1.70
2023-01-07T11:35:52.515Z,1.70
2023-01-07T11:38:49.973Z,1.60
2023-01-07T11:41:47.577Z,1.60
2023-01-07T11:44:45.032Z,1.80
2023-01-07T11:47:43.507Z,1.70
2023-01-07T11:50:41.676Z,2.00
2023-01-07T11:53:39.118Z,1.90
2023-01-07T11:56:36.749Z,2.50
2023-01-07T11:59:34.174Z,2.30
2023-01-07T12:02:31.929Z,2.60
2023-01-07T12:05:30.301Z,2.60
2023-01-07T12:08:28.372Z,2.50
2023-01-07T12:11:25.977Z,3.00
2023-01-07T12:14:23.387Z,3.40
2023-01-07T12:17:21.135Z,3.30
2023-01-07T12:20:18.567Z,3.80
2023-01-07T12:23:16.387Z,4.00
2023-01-07T12:26:13.823Z,4.00
2023-01-07T12:29:11.550Z,4.30
2023-01-07T12:32:09.260Z,4.40
2023-01-07T12:35:15.241Z,4.20
2023-01-07T12:38:13.566Z,4.90
2023-01-07T12:41:11.773Z,8.20
2023-01-07T12:44:09.538Z,7.40
2023-01-07T12:47:31.355Z,5.00
2023-01-07T12:50:24.575Z,5.50
2023-01-07T12:53:22.177Z,4.40
2023-01-07T12:56:20.160Z,4.50
2023-01-07T12:59:46.282Z,4.30
2023-01-07T13:02:37.587Z,4.40
2023-01-07T13:05:35.409Z,5.20
2023-01-07T13:08:32.811Z,4.10
2023-01-07T13:11:44.335Z,3.40
2023-01-07T13:14:42.007Z,4.30
2023-01-07T13:17:40.741Z,4.00
2023-01-07T13:20:39.156Z,3.60
2023-01-07T13:23:36.674Z,2.80
2023-01-07T13:26:35.113Z,2.50
2023-01-07T13:29:32.604Z,2.60
2023-01-07T13:32:30.427Z,2.50
2023-01-07T13:35:28.106Z,3.00
2023-01-07T13:38:25.591Z,2.70
2023-01-07T13:41:23.322Z,3.40
2023-01-07T13:44:20.753Z,2.60
2023-01-07T13:47:18.562Z,2.80
2023-01-07T13:50:15.983Z,3.10
2023-01-07T13:53:13.693Z,2.90
2023-01-07T13:56:11.188Z,2.40
2023-01-07T13:59:09.100Z,2.70
2023-01-07T14:02:06.916Z,2.50
2023-01-07T14:05:04.559Z,2.70
2023-01-07T14:08:02.411Z,2.50
2023-01-07T14:10:59.877Z,1.90
2023-01-07T14:13:57.751Z,1.80
2023-01-07T14:16:55.177Z,2.00
2023-01-07T14:19:52.958Z,2.00
2023-01-07T14:22:50.414Z,1.80
2023-01-07T14:25:48.039Z,2.10
2023-01-07T14:28:45.485Z,2.00
2023-01-07T14:31:43.254Z,2.20
2023-01-07T14:34:40.984Z,2.40
2023-01-07T14:37:38.428Z,2.60
2023-01-07T14:40:37.640Z,2.40
2023-01-07T14:43:35.070Z,2.40
2023-01-07T14:46:32.785Z,2.80
2023-01-07T14:49:30.296Z,2.40
2023-01-07T14:52:28.087Z,2.50
2023-01-07T14:55:25.805Z,2.70
2023-01-07T14:58:23.261Z,2.70
2023-01-07T15:01:22.356Z,2.70
2023-01-07T15:04:19.859Z,2.70
2023-01-07T15:07:17.788Z,3.30
2023-01-07T15:10:32.803Z,2.70
2023-01-07T15:13:48.301Z,2.50
2023-01-07T15:16:46.092Z,2.50
2023-01-07T15:19:43.520Z,2.90
2023-01-07T15:22:41.197Z,2.80
2023-01-07T15:25:38.611Z,2.90
2023-01-07T15:28:36.340Z,2.90
2023-01-07T15:31:33.791Z,3.10
2023-01-07T15:34:31.432Z,2.90
2023-01-07T15:37:28.859Z,2.90
2023-01-07T15:40:26.581Z,2.80
2023-01-07T15:43:24.946Z,3.00
2023-01-07T15:46:22.479Z,2.80
2023-01-07T15:49:19.968Z,2.90
2023-01-07T15:52:17.404Z,3.30
2023-01-07T15:55:15.412Z,2.80
2023-01-07T15:58:12.833Z,2.80
2023-01-07T16:01:10.667Z,2.90
2023-01-07T16:04:08.193Z,3.00
2023-01-07T16:07:07.605Z,3.70
2023-01-07T16:10:05.371Z,3.40
2023-01-07T16:13:02.803Z,3.30
2023-01-07T16:16:03.261Z,4.00
2023-01-07T16:19:00.924Z,4.00
2023-01-07T16:21:58.584Z,4.40
2023-01-07T16:24:56.155Z,4.70
2023-01-07T16:27:53.830Z,4.40
2023-01-07T16:30:51.572Z,4.60
2023-01-07T16:33:48.989Z,5.10
2023-01-07T16:36:46.656Z,5.40
2023-01-07T16:39:44.069Z,5.40
2023-01-07T16:42:41.826Z,5.40
2023-01-07T16:45:39.261Z,5.40
2023-01-07T16:48:36.900Z,5.80
2023-01-07T16:51:34.618Z,5.10
2023-01-07T16:54:32.096Z,5.30
2023-01-07T16:57:29.786Z,4.90
2023-01-07T17:00:27.241Z,4.50
2023-01-07T17:03:24.961Z,4.40
2023-01-07T17:06:24.389Z,4.50
2023-01-07T17:09:22.259Z,5.10
2023-01-07T17:12:19.949Z,5.20
2023-01-07T17:15:17.692Z,5.80
2023-01-07T17:18:15.743Z,5.00
2023-01-07T17:21:13.205Z,6.00
2023-01-07T17:24:11.017Z,5.70
2023-01-07T17:27:08.481Z,5.80
2023-01-07T17:30:07.333Z,6.10
2023-01-07T17:33:06.655Z,6.00
2023-01-07T17:36:04.354Z,6.60
2023-01-07T17:39:01.803Z,5.80
2023-01-07T17:42:16.929Z,6.80
2023-01-07T17:45:14.553Z,7.00
2023-01-07T17:48:11.986Z,7.80
2023-01-07T17:51:09.833Z,7.10
2023-01-07T17:54:08.352Z,7.50
2023-01-07T17:57:06.032Z,7.70
2023-01-07T18:00:03.480Z,7.40
2023-01-07T18:03:04.885Z,7.50
2023-01-07T18:06:02.943Z,7.60
2023-01-07T18:09:00.559Z,7.70
2023-01-07T18:12:15.894Z,8.40
2023-01-07T18:15:13.773Z,8.60
2023-01-07T18:18:11.541Z,8.50
2023-01-07T18:21:08.973Z,8.60
2023-01-07T18:24:06.776Z,8.50
2023-01-07T18:27:04.192Z,7.90
2023-01-07T18:30:01.969Z,8.10
2023-01-07T18:32:59.422Z,7.90
2023-01-07T18:35:57.121Z,7.20
2023-01-07T18:38:54.770Z,7.10
2023-01-07T18:41:54.313Z,6.80
2023-01-07T18:44:51.957Z,7.70
2023-01-07T18:47:49.931Z,7.60
2023-01-07T18:50:47.693Z,7.70
2023-01-07T18:53:45.175Z,7.60
2023-01-07T18:56:43.504Z,7.60
2023-01-07T18:59:41.023Z,8.40
2023-01-07T19:02:38.793Z,10.00
2023-01-07T19:05:36.213Z,10.20
2023-01-07T19:08:33.908Z,11.00
2023-01-07T19:11:32.281Z,10.50
2023-01-07T19:14:30.123Z,10.70
2023-01-07T19:17:27.580Z,14.20
2023-01-07T19:20:25.364Z,12.00
2023-01-07T19:23:22.782Z,14.00
2023-01-07T19:26:21.314Z,14.70
2023-01-07T19:29:19.043Z,14.90
2023-01-07T19:32:16.491Z,12.60
2023-01-07T19:35:14.209Z,14.70
2023-01-07T19:38:12.710Z,15.10
2023-01-07T19:41:11.595Z,14.10
2023-01-07T19:44:10.300Z,12.30
2023-01-07T19:47:07.929Z,12.60
2023-01-07T19:50:07.152Z,11.90
2023-01-07T19:53:05.186Z,12.40
2023-01-07T19:56:02.900Z,12.50
2023-01-07T19:59:00.571Z,12.80
2023-01-07T20:01:58.307Z,11.40
2023-01-07T20:04:55.892Z,13.90
2023-01-07T20:07:53.672Z,12.90
2023-01-07T20:10:51.204Z,11.60
2023-01-07T20:13:48.963Z,12.60
2023-01-07T20:16:46.916Z,11.10
2023-01-07T20:19:44.987Z,10.70
2023-01-07T20:22:42.679Z,11.50
2023-01-07T20:25:40.090Z,11.00
2023-01-07T20:28:37.932Z,9.70
2023-01-07T20:31:35.572Z,11.60
2023-01-07T20:34:33.270Z,11.20
2023-01-07T20:37:30.720Z,12.70
2023-01-07T20:40:28.459Z,11.60
2023-01-07T20:43:25.984Z,11.60
2023-01-07T20:46:23.865Z,11.80
2023-01-07T20:49:23.333Z,10.90
2023-01-07T20:52:21.089Z,11.00
2023-01-07T20:55:19.044Z,12.30
2023-01-07T20:58:16.473Z,13.30
2023-01-07T21:01:14.626Z,13.50
2023-01-07T21:04:12.392Z,14.10
2023-01-07T21:07:10.218Z,13.90
2023-01-07T21:10:07.684Z,13.90
2023-01-07T21:13:05.416Z,15.20
2023-01-07T21:16:03.302Z,13.30
2023-01-07T21:19:01.174Z,14.40
2023-01-07T21:22:02.886Z,14.90
2023-01-07T21:25:00.501Z,13.40
2023-01-07T21:27:58.283Z,14.40
2023-01-07T21:30:55.745Z,15.10
2023-01-07T21:33:53.453Z,14.70
2023-01-07T21:36:50.873Z,14.20
2023-01-07T21:39:51.805Z,14.70
2023-01-07T21:42:49.348Z,15.50
2023-01-07T21:45:47.119Z,14.10
2023-01-07T21:48:46.698Z,14.30
2023-01-07T21:51:44.913Z,13.70
2023-01-07T21:54:42.994Z,14.40
2023-01-07T21:57:40.826Z,14.80
2023-01-07T22:00:38.789Z,14.30
2023-01-07T22:03:36.955Z,14.90
2023-01-07T22:06:34.758Z,15.40
2023-01-07T22:09:32.448Z,15.40
2023-01-07T22:12:30.165Z,14.70
2023-01-07T22:15:27.890Z,16.00
2023-01-07T22:18:25.618Z,15.40
2023-01-07T22:21:23.171Z,14.80
2023-01-07T22:24:21.620Z,15.00
2023-01-07T22:27:21.274Z,14.50
2023-01-07T22:30:19.319Z,15.50
2023-01-07T22:33:17.789Z,16.00
2023-01-07T22:36:15.934Z,13.90
2023-01-07T22:39:13.676Z,14.30
2023-01-07T22:42:11.150Z,12.70
2023-01-07T22:45:09.440Z,13.60
2023-01-07T22:48:06.952Z,10.80
2023-01-07T22:51:04.624Z,12.90
2023-01-07T22:54:02.215Z,13.90
2023-01-07T22:56:59.680Z,14.80
2023-01-07T22:59:59.309Z,14.70
2023-01-07T23:02:56.752Z,13.30
2023-01-07T23:05:54.368Z,15.30
2023-01-07T23:08:51.790Z,14.30
2023-01-07T23:11:49.601Z,15.30
2023-01-07T23:14:47.042Z,13.90
2023-01-07T23:17:44.775Z,14.40
2023-01-07T23:20:42.212Z,15.80
2023-01-07T23:23:40.006Z,14.60
2023-01-07T23:26:37.857Z,13.90
2023-01-07T23:29:35.900Z,15.50
2023-01-07T23:32:33.617Z,13.90
2023-01-07T23:35:31.066Z,15.50
2023-01-07T23:38:28.699Z,15.50
2023-01-07T23:41:26.133Z,15.30
2023-01-07T23:44:23.769Z,14.10
2023-01-07T23:47:21.202Z,15.00
2023-01-07T23:50:18.906Z,15.40
2023-01-07T23:53:16.371Z,15.70
2023-01-07T23:56:14.108Z,14.40
2023-01-07T23:59:11.529Z,15.80
